CheckWX is a tool to help pilots better visualize weather data.  It is not intended as a substitute for an official pre-flight weather briefing.

11:07:18 UTC

KSEM METAR
Craig Field Airport
Selma, Alabama, USA
Current

32 mins ago

KSEM 261035Z AUTO 31004KT 10SM CLR 08/08 A2992 RMK AO2
Observed
Feb-26 @ 10:35 UTC
Wind
  • 310° at 4 KTS
Visibility
10 SM
Flight Rules
VFR
Cloud Levels
  • Clear skies
Temperature
C / 46°F
Dewpoint
C / 46°F
Humidity
100%
Altimeter
29.92" Hg
Pressure
1013.22 hPa
Previous

52 mins ago

KSEM 261015Z AUTO 29005KT 10SM CLR 09/08 A2992 RMK AO2
Observed
Feb-26 @ 10:15 UTC
Wind
  • 290° at 5 KTS
Visibility
10 SM
Flight Rules
VFR
Cloud Levels
  • Clear skies
Temperature
C / 48°F
Dewpoint
C / 46°F
Humidity
94%
Altimeter
29.92" Hg
Pressure
1013.22 hPa
Previous

1 hour ago

KSEM 260955Z AUTO 31006KT 10SM CLR 09/09 A2991 RMK AO2
Observed
Feb-26 @ 09:55 UTC
Wind
  • 310° at 6 KTS
Visibility
10 SM
Flight Rules
VFR
Cloud Levels
  • Clear skies
Temperature
C / 48°F
Dewpoint
C / 48°F
Humidity
100%
Altimeter
29.91" Hg
Pressure
1012.92 hPa